createdAt,value
2022-09-22T00:01:14.759Z,1.83
2022-09-22T00:03:43.697Z,2.42
2022-09-22T00:06:16.588Z,2.15
2022-09-22T00:08:48.689Z,2.15
2022-09-22T00:11:17.243Z,2.08
2022-09-22T00:13:47.716Z,2.17
2022-09-22T00:16:15.616Z,2.08
2022-09-22T00:18:42.558Z,1.60
2022-09-22T00:21:14.847Z,2.17
2022-09-22T00:23:42.610Z,2.13
2022-09-22T00:26:17.948Z,1.90
2022-09-22T00:28:47.766Z,1.67
2022-09-22T00:31:18.424Z,1.67
2022-09-22T00:33:48.783Z,1.90
2022-09-22T00:36:16.974Z,1.70
2022-09-22T00:38:44.556Z,1.60
2022-09-22T00:41:20.660Z,1.42
2022-09-22T00:43:50.375Z,1.70
2022-09-22T00:46:28.726Z,1.90
2022-09-22T00:48:59.400Z,1.30
2022-09-22T00:51:30.531Z,2.00
2022-09-22T00:53:58.411Z,1.50
2022-09-22T00:56:30.532Z,1.60
2022-09-22T00:59:03.429Z,1.80
2022-09-22T01:01:30.155Z,1.77
2022-09-22T01:03:57.327Z,2.00
2022-09-22T01:06:27.909Z,2.25
2022-09-22T01:08:59.593Z,1.80
2022-09-22T01:11:27.917Z,1.83
2022-09-22T01:14:13.039Z,1.85
2022-09-22T01:16:52.699Z,1.58
2022-09-22T01:19:22.980Z,1.60
2022-09-22T01:22:14.302Z,1.45
2022-09-22T01:24:59.766Z,1.48
2022-09-22T01:27:51.488Z,1.70
2022-09-22T01:30:23.483Z,1.52
2022-09-22T01:33:00.663Z,1.60
2022-09-22T01:35:46.024Z,1.80
2022-09-22T01:38:22.836Z,2.17
2022-09-22T01:40:56.456Z,1.77
2022-09-22T01:43:51.362Z,1.80
2022-09-22T01:46:29.353Z,1.98
2022-09-22T01:49:00.641Z,1.80
2022-09-22T01:51:37.463Z,1.80
2022-09-22T01:54:27.183Z,2.25
2022-09-22T01:57:01.226Z,1.60
2022-09-22T01:59:30.541Z,1.40
2022-09-22T02:02:04.243Z,1.83
2022-09-22T02:04:49.347Z,1.55
2022-09-22T02:07:24.699Z,1.65
2022-09-22T02:09:51.674Z,1.80
2022-09-22T02:12:18.973Z,1.55
2022-09-22T02:14:47.045Z,1.67
2022-09-22T02:17:15.010Z,1.63
2022-09-22T02:19:42.775Z,1.58
2022-09-22T02:22:11.532Z,1.42
2022-09-22T02:24:46.120Z,1.80
2022-09-22T02:27:20.446Z,1.60
2022-09-22T02:29:52.307Z,1.52
2022-09-22T02:32:20.719Z,1.70
2022-09-22T02:34:48.372Z,1.80
2022-09-22T02:37:15.029Z,1.55
2022-09-22T02:39:53.042Z,2.00
2022-09-22T02:42:34.647Z,1.42
2022-09-22T02:45:13.655Z,1.50
2022-09-22T02:47:57.292Z,1.80
2022-09-22T02:50:27.100Z,1.65
2022-09-22T02:53:01.077Z,1.75
2022-09-22T02:55:27.954Z,1.70
2022-09-22T02:57:54.669Z,1.45
2022-09-22T03:00:22.405Z,1.83
2022-09-22T03:02:49.190Z,1.60
2022-09-22T03:05:16.002Z,1.88
2022-09-22T03:07:42.777Z,1.60
2022-09-22T03:10:10.484Z,1.90
2022-09-22T03:13:02.432Z,1.92
2022-09-22T03:15:29.240Z,1.73
2022-09-22T03:17:56.005Z,1.85
2022-09-22T03:20:22.755Z,1.85
2022-09-22T03:22:49.453Z,1.63
2022-09-22T03:25:16.244Z,1.88
2022-09-22T03:27:43.048Z,2.53
2022-09-22T03:30:10.856Z,1.92
2022-09-22T03:32:37.735Z,1.70
2022-09-22T03:35:05.083Z,2.15
2022-09-22T03:37:33.033Z,2.40
2022-09-22T03:39:59.788Z,2.70
2022-09-22T03:42:26.730Z,2.40
2022-09-22T03:44:53.405Z,2.42
2022-09-22T03:47:20.115Z,2.28
2022-09-22T03:49:46.820Z,2.70
2022-09-22T03:52:13.543Z,2.40
2022-09-22T03:54:40.232Z,3.00
2022-09-22T03:57:06.934Z,3.17
2022-09-22T03:59:33.888Z,3.17
2022-09-22T04:02:02.554Z,3.42
2022-09-22T04:04:29.392Z,3.08
2022-09-22T04:06:56.250Z,3.15
2022-09-22T04:09:22.928Z,4.03
2022-09-22T04:11:49.640Z,4.07
2022-09-22T04:14:16.492Z,3.58
2022-09-22T04:16:43.219Z,3.88
2022-09-22T04:19:10.224Z,3.65
2022-09-22T04:21:37.106Z,3.33
2022-09-22T04:24:04.329Z,3.67
2022-09-22T04:26:31.025Z,4.32
2022-09-22T04:28:57.746Z,3.45
2022-09-22T04:31:24.516Z,3.10
2022-09-22T04:33:51.304Z,4.00
2022-09-22T04:36:18.278Z,3.63
2022-09-22T04:38:45.000Z,3.42
2022-09-22T04:41:11.738Z,3.80
2022-09-22T04:43:39.399Z,3.80
2022-09-22T04:46:06.218Z,3.30
2022-09-22T04:48:33.360Z,3.50
2022-09-22T04:51:00.203Z,4.15
2022-09-22T04:53:26.948Z,3.45
2022-09-22T04:55:53.785Z,4.15
2022-09-22T04:58:20.756Z,3.17
2022-09-22T05:00:47.623Z,3.90
2022-09-22T05:03:18.639Z,3.10
2022-09-22T05:05:48.613Z,3.42
2022-09-22T05:08:16.341Z,3.20
2022-09-22T05:10:43.223Z,3.53
2022-09-22T05:13:10.034Z,2.83
2022-09-22T05:15:37.554Z,2.83
2022-09-22T05:18:04.383Z,2.78
2022-09-22T05:20:31.134Z,3.13
2022-09-22T05:22:57.987Z,3.30
2022-09-22T05:25:24.970Z,3.55
2022-09-22T05:27:53.958Z,4.60
2022-09-22T05:30:22.967Z,3.45
2022-09-22T05:32:50.177Z,3.83
2022-09-22T05:35:19.824Z,3.38
2022-09-22T05:37:48.748Z,3.65
2022-09-22T05:40:17.073Z,3.28
2022-09-22T05:42:46.659Z,3.55
2022-09-22T05:45:14.238Z,4.55
2022-09-22T05:47:41.288Z,3.97
2022-09-22T05:50:09.357Z,3.45
2022-09-22T05:52:39.399Z,3.30
2022-09-22T05:55:07.394Z,3.88
2022-09-22T05:57:34.431Z,3.13
2022-09-22T06:00:01.440Z,4.13
2022-09-22T06:02:28.556Z,3.58
2022-09-22T06:04:55.326Z,2.88
2022-09-22T06:07:26.376Z,3.70
2022-09-22T06:09:53.360Z,3.50
2022-09-22T06:12:23.057Z,3.80
2022-09-22T06:14:50.402Z,4.50
2022-09-22T06:17:20.513Z,3.83
2022-09-22T06:19:50.687Z,4.55
2022-09-22T06:22:18.625Z,4.38
2022-09-22T06:24:46.179Z,3.88
2022-09-22T06:27:13.981Z,4.78
2022-09-22T06:29:42.781Z,3.80
2022-09-22T06:32:10.307Z,4.90
2022-09-22T06:34:49.374Z,3.58
2022-09-22T06:37:26.900Z,6.05
2022-09-22T06:39:53.848Z,4.40
2022-09-22T06:42:21.146Z,3.70
2022-09-22T06:44:49.503Z,5.88
2022-09-22T06:47:17.158Z,4.93
2022-09-22T06:49:44.371Z,5.47
2022-09-22T06:52:13.289Z,4.03
2022-09-22T06:54:41.267Z,6.10
2022-09-22T06:57:14.946Z,5.82
2022-09-22T06:59:41.687Z,4.22
2022-09-22T07:02:10.241Z,5.60
2022-09-22T07:04:37.578Z,5.20
2022-09-22T07:07:04.537Z,4.72
2022-09-22T07:09:31.770Z,5.47
2022-09-22T07:11:59.261Z,5.20
2022-09-22T07:14:26.608Z,5.15
2022-09-22T07:16:55.331Z,4.85
2022-09-22T07:19:22.075Z,5.20
2022-09-22T07:21:48.880Z,5.97
2022-09-22T07:24:15.790Z,6.25
2022-09-22T07:26:44.016Z,5.45
2022-09-22T07:29:13.531Z,6.20
2022-09-22T07:31:41.925Z,6.85
2022-09-22T07:34:09.254Z,6.15
2022-09-22T07:36:37.203Z,4.88
2022-09-22T07:39:11.249Z,6.13
2022-09-22T07:41:44.521Z,6.85
2022-09-22T07:44:31.844Z,7.45
2022-09-22T07:46:59.510Z,6.43
2022-09-22T07:49:26.977Z,6.63
2022-09-22T07:51:57.732Z,6.18
2022-09-22T07:54:26.463Z,6.22
2022-09-22T07:56:58.383Z,7.28
2022-09-22T07:59:25.891Z,7.20
2022-09-22T08:01:53.265Z,7.28
2022-09-22T08:04:23.925Z,7.03
2022-09-22T08:06:55.850Z,7.32
2022-09-22T08:09:24.174Z,7.35
2022-09-22T08:11:53.004Z,7.70
2022-09-22T08:14:23.368Z,7.80
2022-09-22T08:16:51.647Z,6.40
2022-09-22T08:19:18.894Z,6.78
2022-09-22T08:21:49.791Z,6.53
2022-09-22T08:24:22.975Z,6.78
2022-09-22T08:26:52.690Z,7.43
2022-09-22T08:29:20.234Z,8.05
2022-09-22T08:31:47.483Z,7.32
2022-09-22T08:34:16.498Z,6.50
2022-09-22T08:36:47.316Z,7.15
2022-09-22T08:39:15.604Z,7.15
2022-09-22T08:41:48.387Z,6.47
2022-09-22T08:44:35.308Z,6.35
2022-09-22T08:47:02.362Z,6.40
2022-09-22T08:50:01.443Z,5.18
2022-09-22T08:52:49.276Z,5.57
2022-09-22T08:55:24.608Z,5.25
2022-09-22T08:58:26.261Z,5.63
2022-09-22T09:01:42.785Z,5.63
2022-09-22T09:04:52.023Z,5.30
2022-09-22T09:07:27.515Z,5.38
2022-09-22T09:10:21.067Z,6.20
2022-09-22T09:12:59.943Z,6.97
2022-09-22T09:15:44.865Z,5.53
2022-09-22T09:20:49.433Z,5.53
2022-09-22T09:23:23.592Z,5.93
2022-09-22T09:25:54.354Z,5.50
2022-09-22T09:28:28.128Z,4.80
2022-09-22T09:31:18.175Z,4.68
2022-09-22T09:34:06.097Z,4.20
2022-09-22T09:36:41.258Z,3.95
2022-09-22T09:39:37.866Z,4.07
2022-09-22T09:42:28.630Z,3.35
2022-09-22T09:44:57.724Z,2.22
2022-09-22T09:47:39.741Z,2.85
2022-09-22T09:50:07.651Z,3.22
2022-09-22T09:52:37.485Z,2.80
2022-09-22T09:55:27.017Z,2.63
2022-09-22T09:58:12.173Z,2.42
2022-09-22T10:03:37.105Z,2.15
2022-09-22T10:06:10.227Z,2.13
2022-09-22T10:08:48.012Z,2.10
2022-09-22T10:11:15.396Z,2.08
2022-09-22T10:13:44.460Z,2.17
2022-09-22T10:16:33.389Z,1.98
2022-09-22T10:19:06.512Z,2.05
2022-09-22T10:21:37.762Z,2.00
2022-09-22T10:24:34.807Z,1.88
2022-09-22T10:27:05.194Z,1.40
2022-09-22T10:29:34.503Z,1.65
2022-09-22T10:32:17.813Z,1.50
2022-09-22T10:34:50.925Z,1.40
2022-09-22T10:37:25.338Z,1.27
2022-09-22T10:39:56.553Z,1.50
2022-09-22T10:42:41.545Z,1.40
2022-09-22T10:45:16.805Z,1.55
2022-09-22T10:47:57.926Z,1.42
2022-09-22T10:50:34.928Z,1.20
2022-09-22T10:53:27.391Z,1.05
2022-09-22T10:56:12.888Z,0.90
2022-09-22T10:59:00.654Z,0.93
2022-09-22T11:01:47.708Z,0.88
2022-09-22T11:04:17.496Z,1.10
2022-09-22T11:07:51.636Z,1.02
2022-09-22T11:11:09.332Z,1.00
2022-09-22T11:13:41.559Z,0.60
2022-09-22T11:16:20.746Z,0.95
2022-09-22T11:19:08.169Z,1.00
2022-09-22T11:22:12.079Z,1.02
2022-09-22T11:25:01.064Z,1.23
2022-09-22T11:27:45.275Z,0.77
2022-09-22T11:30:20.695Z,0.52
2022-09-22T11:33:02.231Z,0.77
2022-09-22T11:35:50.460Z,0.60
2022-09-22T11:38:39.032Z,0.50
2022-09-22T11:41:17.616Z,0.47
2022-09-22T11:44:03.305Z,0.63
2022-09-22T11:46:39.025Z,0.50
2022-09-22T11:49:08.918Z,0.60
2022-09-22T11:51:35.779Z,0.65
2022-09-22T11:54:20.507Z,0.65
2022-09-22T11:59:41.602Z,1.10
2022-09-22T12:02:35.324Z,0.60
2022-09-22T12:05:18.646Z,0.50
2022-09-22T12:08:03.119Z,0.50
2022-09-22T12:10:34.754Z,0.50
2022-09-22T12:13:04.411Z,0.50
2022-09-22T12:18:56.321Z,0.50
2022-09-22T12:21:45.952Z,0.55
2022-09-22T12:24:13.437Z,0.40
2022-09-22T12:26:42.977Z,0.30
2022-09-22T12:29:27.519Z,0.50
2022-09-22T12:31:56.865Z,0.80
2022-09-22T12:34:32.780Z,0.90
2022-09-22T12:37:13.290Z,0.50
2022-09-22T12:39:49.917Z,0.55
2022-09-22T12:42:29.034Z,0.70
2022-09-22T12:45:01.451Z,0.60
2022-09-22T12:47:34.435Z,0.70
2022-09-22T12:50:07.156Z,0.80
2022-09-22T12:52:54.386Z,0.50
2022-09-22T12:55:21.850Z,0.50
2022-09-22T12:57:50.790Z,0.85
2022-09-22T13:00:37.618Z,0.80
2022-09-22T13:03:26.450Z,0.52
2022-09-22T13:06:03.483Z,0.40
2022-09-22T13:08:33.303Z,0.90
2022-09-22T13:11:07.901Z,0.45
2022-09-22T13:13:43.617Z,0.90
2022-09-22T13:16:16.369Z,0.70
2022-09-22T13:18:45.839Z,0.60
2022-09-22T13:21:12.484Z,0.50
2022-09-22T13:23:49.352Z,0.45
2022-09-22T13:26:18.666Z,0.80
2022-09-22T13:28:45.346Z,0.75
2022-09-22T13:31:17.464Z,0.70
2022-09-22T13:33:44.618Z,0.90
2022-09-22T13:36:17.593Z,0.60
2022-09-22T13:38:51.360Z,0.60
2022-09-22T13:41:29.802Z,0.90
2022-09-22T13:44:11.765Z,0.80
2022-09-22T13:46:40.461Z,0.70
2022-09-22T13:49:16.839Z,0.63
2022-09-22T13:51:48.278Z,0.70
2022-09-22T13:54:22.773Z,0.70
2022-09-22T13:56:49.703Z,0.90
2022-09-22T13:59:17.736Z,0.63
2022-09-22T14:01:52.698Z,0.77
2022-09-22T14:04:24.644Z,0.70
2022-09-22T14:07:00.882Z,0.77
2022-09-22T14:09:27.837Z,0.50
2022-09-22T14:12:00.099Z,0.70
2022-09-22T14:14:27.568Z,1.05
2022-09-22T14:16:59.319Z,0.50
2022-09-22T14:19:29.289Z,0.75
2022-09-22T14:22:01.150Z,0.60
2022-09-22T14:24:31.436Z,0.80
2022-09-22T14:27:06.347Z,0.70
2022-09-22T14:29:38.988Z,0.73
2022-09-22T14:32:18.093Z,0.70
2022-09-22T14:34:49.803Z,0.90
2022-09-22T14:37:31.700Z,0.75
2022-09-22T14:40:02.483Z,0.93
2022-09-22T14:42:31.801Z,0.70
2022-09-22T14:45:10.481Z,0.70
2022-09-22T14:47:40.434Z,0.50
2022-09-22T14:50:13.723Z,0.63
2022-09-22T14:53:09.469Z,0.70
2022-09-22T14:55:42.345Z,0.50
2022-09-22T14:58:16.028Z,0.60
2022-09-22T15:01:13.065Z,0.55
2022-09-22T15:03:43.032Z,0.47
2022-09-22T15:06:12.844Z,0.55
2022-09-22T15:08:41.264Z,0.50
2022-09-22T15:11:09.116Z,0.60
2022-09-22T15:13:43.140Z,0.50
2022-09-22T15:16:37.819Z,0.85
2022-09-22T15:19:05.776Z,0.70
2022-09-22T15:21:46.889Z,0.50
2022-09-22T15:24:17.474Z,0.47
2022-09-22T15:26:44.867Z,0.60
2022-09-22T15:29:17.128Z,0.50
2022-09-22T15:31:43.862Z,0.65
2022-09-22T15:34:12.808Z,0.60
2022-09-22T15:36:45.886Z,0.35
2022-09-22T15:39:24.026Z,0.70
2022-09-22T15:41:52.692Z,0.50
2022-09-22T15:44:19.842Z,0.52
2022-09-22T15:46:52.003Z,0.52
2022-09-22T15:49:23.333Z,0.60
2022-09-22T15:51:50.498Z,0.68
2022-09-22T15:54:22.009Z,0.50
2022-09-22T15:56:51.379Z,0.40
2022-09-22T15:59:23.082Z,0.65
2022-09-22T16:01:52.518Z,0.70
2022-09-22T16:04:20.226Z,0.82
2022-09-22T16:07:02.705Z,0.70
2022-09-22T16:09:30.177Z,0.73
2022-09-22T16:11:56.934Z,0.60
2022-09-22T16:14:23.700Z,0.70
2022-09-22T16:16:52.229Z,0.88
2022-09-22T16:19:20.894Z,0.80
2022-09-22T16:21:52.840Z,0.60
2022-09-22T16:24:22.265Z,0.70
2022-09-22T16:26:49.399Z,1.27
2022-09-22T16:29:16.544Z,0.70
2022-09-22T16:31:43.304Z,0.60
2022-09-22T16:34:11.944Z,0.80
2022-09-22T16:36:41.878Z,1.85
2022-09-22T16:39:08.849Z,0.80
2022-09-22T16:41:36.804Z,0.77
2022-09-22T16:44:04.554Z,0.80
2022-09-22T16:46:33.798Z,0.80
2022-09-22T16:49:05.703Z,0.60
2022-09-22T16:51:34.465Z,0.68
2022-09-22T16:54:01.522Z,0.65
2022-09-22T16:56:30.504Z,1.10
2022-09-22T16:58:57.479Z,0.90
2022-09-22T17:01:24.637Z,0.80
2022-09-22T17:03:54.397Z,1.13
2022-09-22T17:06:24.461Z,0.70
2022-09-22T17:08:57.148Z,0.93
2022-09-22T17:11:30.113Z,0.60
2022-09-22T17:14:03.144Z,0.52
2022-09-22T17:16:31.409Z,0.85
2022-09-22T17:19:03.032Z,1.30
2022-09-22T17:21:34.233Z,1.35
2022-09-22T17:24:01.943Z,1.60
2022-09-22T17:26:31.342Z,2.25
2022-09-22T17:28:59.569Z,2.67
2022-09-22T17:31:33.298Z,2.95
2022-09-22T17:34:00.251Z,2.30
2022-09-22T17:36:28.157Z,2.22
2022-09-22T17:38:57.447Z,2.65
2022-09-22T17:41:31.395Z,2.13
2022-09-22T17:44:01.357Z,2.53
2022-09-22T17:46:31.339Z,2.47
2022-09-22T17:49:16.695Z,2.60
2022-09-22T17:52:02.925Z,3.10
2022-09-22T17:54:59.183Z,2.50
2022-09-22T17:57:31.225Z,2.42
2022-09-22T17:59:58.949Z,2.78
2022-09-22T18:02:28.196Z,2.85
2022-09-22T18:04:55.330Z,2.35
2022-09-22T18:07:25.127Z,2.45
2022-09-22T18:09:52.565Z,2.80
2022-09-22T18:12:21.744Z,2.53
2022-09-22T18:14:52.136Z,2.60
2022-09-22T18:17:21.876Z,2.47
2022-09-22T18:19:48.597Z,3.25
2022-09-22T18:22:21.279Z,2.45
2022-09-22T18:24:52.264Z,2.78
2022-09-22T18:27:19.590Z,2.38
2022-09-22T18:29:48.913Z,3.63
2022-09-22T18:32:17.016Z,2.83
2022-09-22T18:34:43.863Z,2.70
2022-09-22T18:37:11.200Z,2.83
2022-09-22T18:39:41.794Z,3.30
2022-09-22T18:42:14.760Z,3.08
2022-09-22T18:44:41.753Z,2.97
2022-09-22T18:47:13.510Z,2.45
2022-09-22T18:49:40.782Z,3.30
2022-09-22T18:52:08.171Z,2.60
2022-09-22T18:54:42.961Z,2.65
2022-09-22T18:57:13.310Z,3.95
2022-09-22T18:59:40.708Z,4.65
2022-09-22T19:02:11.633Z,5.75
2022-09-22T19:04:38.931Z,5.25
2022-09-22T19:07:24.239Z,5.82
2022-09-22T19:09:52.468Z,6.20
2022-09-22T19:12:21.491Z,7.55
2022-09-22T19:14:48.880Z,9.02
2022-09-22T19:17:17.316Z,7.35
2022-09-22T19:19:46.145Z,7.28
2022-09-22T19:22:12.911Z,6.68
2022-09-22T19:24:40.723Z,6.03
2022-09-22T19:27:09.201Z,5.18
2022-09-22T19:29:36.077Z,4.90
2022-09-22T19:32:04.569Z,4.43
2022-09-22T19:34:31.794Z,3.85
2022-09-22T19:36:59.337Z,3.58
2022-09-22T19:39:26.669Z,3.55
2022-09-22T19:41:53.425Z,3.65
2022-09-22T19:44:22.270Z,3.22
2022-09-22T19:46:49.298Z,3.45
2022-09-22T19:49:17.424Z,3.28
2022-09-22T19:51:44.478Z,2.65
2022-09-22T19:54:12.036Z,3.55
2022-09-22T19:56:38.858Z,2.20
2022-09-22T19:59:07.366Z,3.60
2022-09-22T20:01:41.173Z,3.78
2022-09-22T20:04:14.509Z,3.40
2022-09-22T20:06:41.412Z,3.72
2022-09-22T20:09:08.226Z,3.30
2022-09-22T20:11:43.892Z,2.95
2022-09-22T20:14:22.490Z,4.00
2022-09-22T20:19:20.507Z,3.05
2022-09-22T20:21:48.200Z,4.30
2022-09-22T20:24:17.879Z,5.07
2022-09-22T20:26:45.334Z,4.95
2022-09-22T20:29:13.180Z,6.07
2022-09-22T20:31:40.678Z,6.30
2022-09-22T20:34:10.300Z,8.13
2022-09-22T20:36:37.458Z,6.15
2022-09-22T20:39:05.642Z,5.55
2022-09-22T20:41:32.699Z,5.00
2022-09-22T20:43:59.547Z,4.25
2022-09-22T20:46:26.382Z,4.20
2022-09-22T20:48:55.493Z,3.53
2022-09-22T20:51:23.603Z,3.13
2022-09-22T20:53:50.534Z,3.20
2022-09-22T20:56:17.594Z,3.10
2022-09-22T20:58:46.024Z,2.45
2022-09-22T21:01:15.831Z,2.95
2022-09-22T21:03:43.648Z,2.10
2022-09-22T21:06:12.871Z,2.35
2022-09-22T21:09:02.642Z,2.38
2022-09-22T21:11:30.107Z,2.50
2022-09-22T21:14:01.935Z,2.45
2022-09-22T21:16:35.573Z,2.22
2022-09-22T21:19:02.871Z,2.50
2022-09-22T21:21:31.533Z,2.70
2022-09-22T21:24:01.920Z,2.20
2022-09-22T21:26:30.252Z,2.60
2022-09-22T21:28:57.254Z,2.88
2022-09-22T21:31:24.051Z,3.00
2022-09-22T21:33:51.700Z,2.78
2022-09-22T21:36:22.548Z,2.20
2022-09-22T21:38:55.103Z,2.17
2022-09-22T21:41:23.820Z,2.90
2022-09-22T21:43:51.290Z,2.25
2022-09-22T21:46:21.665Z,2.55
2022-09-22T21:48:48.960Z,2.67
2022-09-22T21:51:20.498Z,2.70
2022-09-22T21:53:48.791Z,3.13
2022-09-22T21:56:17.867Z,2.78
2022-09-22T21:58:49.507Z,2.90
2022-09-22T22:01:21.648Z,2.92
2022-09-22T22:03:50.111Z,3.38
2022-09-22T22:06:19.497Z,3.22
2022-09-22T22:08:47.769Z,3.03
2022-09-22T22:11:23.804Z,2.83
2022-09-22T22:13:55.167Z,3.28
2022-09-22T22:16:25.070Z,2.95
2022-09-22T22:18:52.183Z,2.88
2022-09-22T22:21:22.970Z,3.30
2022-09-22T22:23:52.842Z,2.80
2022-09-22T22:26:25.486Z,3.28
2022-09-22T22:28:53.116Z,3.15
2022-09-22T22:31:23.092Z,2.95
2022-09-22T22:33:50.198Z,2.70
2022-09-22T22:36:18.330Z,2.88
2022-09-22T22:38:45.609Z,2.80
2022-09-22T22:41:15.049Z,3.00
2022-09-22T22:43:42.766Z,2.83
2022-09-22T22:46:11.245Z,2.50
2022-09-22T22:48:38.423Z,3.35
2022-09-22T22:51:15.693Z,3.00
2022-09-22T22:53:42.839Z,2.88
2022-09-22T22:56:21.862Z,3.17
2022-09-22T22:58:50.308Z,2.83
2022-09-22T23:01:25.960Z,2.90
2022-09-22T23:04:03.533Z,2.83
2022-09-22T23:06:35.847Z,2.40
2022-09-22T23:09:04.679Z,2.75
2022-09-22T23:11:37.131Z,2.47
2022-09-22T23:14:06.862Z,2.72
2022-09-22T23:16:43.373Z,2.03
2022-09-22T23:19:13.075Z,2.67
2022-09-22T23:21:40.353Z,2.95
2022-09-22T23:24:08.241Z,2.38
2022-09-22T23:26:37.209Z,2.47
2022-09-22T23:29:04.321Z,2.65
2022-09-22T23:31:33.652Z,2.53
2022-09-22T23:34:00.393Z,1.98
2022-09-22T23:36:28.761Z,2.00
2022-09-22T23:38:57.446Z,2.30
2022-09-22T23:41:24.673Z,2.40
2022-09-22T23:43:51.433Z,2.33
2022-09-22T23:46:18.383Z,2.47
2022-09-22T23:48:47.391Z,2.40
2022-09-22T23:51:14.590Z,1.95
2022-09-22T23:53:41.673Z,2.45
2022-09-22T23:56:08.672Z,1.92
2022-09-22T23:58:35.593Z,2.20
